createdAt,value
2018-03-16T00:01:22.267Z,4.28
2018-03-16T00:03:49.403Z,3.42
2018-03-16T00:06:15.844Z,3.40
2018-03-16T00:08:42.232Z,3.40
2018-03-16T00:11:09.357Z,3.10
2018-03-16T00:13:35.789Z,3.08
2018-03-16T00:16:02.257Z,2.78
2018-03-16T00:18:28.712Z,2.83
2018-03-16T00:20:55.188Z,2.70
2018-03-16T00:23:21.606Z,2.37
2018-03-16T00:25:48.176Z,1.87
2018-03-16T00:28:14.640Z,2.00
2018-03-16T00:30:41.802Z,2.15
2018-03-16T00:33:08.401Z,2.42
2018-03-16T00:35:34.768Z,2.15
2018-03-16T00:38:01.218Z,1.87
2018-03-16T00:40:27.607Z,2.15
2018-03-16T00:42:54.010Z,1.75
2018-03-16T00:45:20.477Z,1.60
2018-03-16T00:47:46.938Z,1.95
2018-03-16T00:50:13.363Z,1.50
2018-03-16T00:52:39.823Z,1.80
2018-03-16T00:55:06.242Z,1.50
2018-03-16T00:57:32.714Z,1.33
2018-03-16T00:59:59.155Z,1.15
2018-03-16T01:02:25.532Z,1.10
2018-03-16T01:04:51.950Z,1.50
2018-03-16T01:07:19.094Z,1.12
2018-03-16T01:09:46.229Z,1.80
2018-03-16T01:12:12.739Z,1.62
2018-03-16T01:14:39.921Z,1.92
2018-03-16T01:17:06.366Z,1.70
2018-03-16T01:19:32.808Z,1.80
2018-03-16T01:21:59.219Z,1.70
2018-03-16T01:24:26.362Z,1.60
2018-03-16T01:26:55.358Z,1.45
2018-03-16T01:29:22.473Z,1.50
2018-03-16T01:31:48.851Z,1.58
2018-03-16T01:34:15.301Z,1.45
2018-03-16T01:36:41.880Z,1.60
2018-03-16T01:39:08.267Z,1.10
2018-03-16T01:41:34.778Z,1.30
2018-03-16T01:44:01.941Z,1.10
2018-03-16T01:46:28.357Z,1.58
2018-03-16T01:48:54.758Z,1.60
2018-03-16T01:51:21.959Z,1.50
2018-03-16T01:53:48.382Z,1.20
2018-03-16T01:56:14.815Z,1.42
2018-03-16T01:58:41.215Z,2.05
2018-03-16T02:01:08.433Z,1.30
2018-03-16T02:03:34.933Z,1.35
2018-03-16T02:06:01.362Z,1.85
2018-03-16T02:08:27.746Z,1.25
2018-03-16T02:10:54.130Z,1.52
2018-03-16T02:13:20.585Z,1.23
2018-03-16T02:15:47.205Z,1.50
2018-03-16T02:18:13.713Z,1.30
2018-03-16T02:20:40.128Z,1.75
2018-03-16T02:23:06.519Z,1.40
2018-03-16T02:25:32.942Z,1.50
2018-03-16T02:27:59.383Z,2.10
2018-03-16T02:30:26.540Z,1.67
2018-03-16T02:32:52.967Z,1.25
2018-03-16T02:35:19.437Z,1.40
2018-03-16T02:37:45.766Z,1.30
2018-03-16T02:40:12.164Z,1.45
2018-03-16T02:42:38.566Z,1.08
2018-03-16T02:45:04.949Z,1.00
2018-03-16T02:47:32.087Z,0.82
2018-03-16T02:49:59.210Z,1.10
2018-03-16T02:52:25.580Z,1.00
2018-03-16T02:54:51.957Z,0.93
2018-03-16T02:57:19.143Z,0.88
2018-03-16T02:59:45.502Z,1.08
2018-03-16T03:02:12.649Z,1.12
2018-03-16T03:04:39.037Z,0.90
2018-03-16T03:07:05.571Z,0.82
2018-03-16T03:09:32.045Z,0.90
2018-03-16T03:11:58.471Z,1.30
2018-03-16T03:14:24.895Z,0.82
2018-03-16T03:16:52.020Z,0.77
2018-03-16T03:19:18.411Z,1.10
2018-03-16T03:21:44.814Z,0.80
2018-03-16T03:24:11.236Z,1.10
2018-03-16T03:26:38.412Z,1.20
2018-03-16T03:29:04.922Z,0.93
2018-03-16T03:31:31.986Z,0.93
2018-03-16T03:33:58.359Z,0.95
2018-03-16T03:36:25.494Z,1.08
2018-03-16T03:38:51.871Z,1.25
2018-03-16T03:41:19.023Z,1.10
2018-03-16T03:43:46.107Z,0.90
2018-03-16T03:46:12.566Z,1.10
2018-03-16T03:48:38.989Z,1.15
2018-03-16T03:51:05.464Z,0.80
2018-03-16T03:53:32.549Z,1.05
2018-03-16T03:55:58.960Z,1.08
2018-03-16T03:58:25.335Z,1.58
2018-03-16T04:00:51.693Z,1.02
2018-03-16T04:03:18.049Z,1.10
2018-03-16T04:05:44.433Z,1.10
2018-03-16T04:08:10.824Z,1.25
2018-03-16T04:10:37.233Z,0.98
2018-03-16T04:13:04.342Z,1.48
2018-03-16T04:15:30.732Z,1.05
2018-03-16T04:17:57.128Z,1.00
2018-03-16T04:20:23.540Z,1.27
2018-03-16T04:22:49.909Z,1.05
2018-03-16T04:25:17.041Z,1.30
2018-03-16T04:27:43.446Z,1.20
2018-03-16T04:30:09.861Z,0.98
2018-03-16T04:32:36.232Z,1.50
2018-03-16T04:35:03.391Z,1.00
2018-03-16T04:37:30.458Z,1.05
2018-03-16T04:39:56.841Z,0.90
2018-03-16T04:42:23.289Z,1.12
2018-03-16T04:44:50.462Z,1.45
2018-03-16T04:47:17.130Z,1.10
2018-03-16T04:49:43.634Z,0.90
2018-03-16T04:52:10.024Z,1.30
2018-03-16T04:54:36.438Z,1.30
2018-03-16T04:57:02.933Z,1.10
2018-03-16T04:59:29.322Z,1.00
2018-03-16T05:01:55.812Z,0.90
2018-03-16T05:04:22.198Z,0.80
2018-03-16T05:06:49.333Z,1.40
2018-03-16T05:09:15.749Z,0.90
2018-03-16T05:11:42.190Z,1.33
2018-03-16T05:14:08.654Z,1.05
2018-03-16T05:16:35.776Z,1.20
2018-03-16T05:19:02.243Z,1.70
2018-03-16T05:21:28.638Z,2.03
2018-03-16T05:23:55.027Z,1.40
2018-03-16T05:26:22.158Z,1.23
2018-03-16T05:28:48.567Z,1.45
2018-03-16T05:31:15.698Z,1.40
2018-03-16T05:33:42.133Z,2.15
2018-03-16T05:36:08.963Z,1.40
2018-03-16T05:38:35.363Z,1.40
2018-03-16T05:41:01.807Z,1.90
2018-03-16T05:43:28.173Z,1.67
2018-03-16T05:45:55.350Z,1.98
2018-03-16T05:48:21.758Z,2.20
2018-03-16T05:50:48.907Z,1.40
2018-03-16T05:53:15.429Z,1.60
2018-03-16T05:55:41.827Z,1.58
2018-03-16T05:58:08.251Z,1.45
2018-03-16T06:00:34.774Z,1.40
2018-03-16T06:03:01.206Z,1.60
2018-03-16T06:05:27.679Z,1.60
2018-03-16T06:07:54.221Z,1.55
2018-03-16T06:10:20.797Z,1.58
2018-03-16T06:12:47.234Z,2.60
2018-03-16T06:15:13.719Z,2.30
2018-03-16T06:17:40.234Z,2.10
2018-03-16T06:20:06.637Z,2.53
2018-03-16T06:22:33.043Z,1.95
2018-03-16T06:24:59.447Z,1.60
2018-03-16T06:27:25.834Z,1.95
2018-03-16T06:29:52.214Z,1.77
2018-03-16T06:32:18.714Z,1.50
2018-03-16T06:34:45.086Z,2.05
2018-03-16T06:37:11.594Z,1.70
2018-03-16T06:39:37.998Z,1.60
2018-03-16T06:42:04.401Z,1.58
2018-03-16T06:44:31.527Z,1.25
2018-03-16T06:46:58.688Z,1.25
2018-03-16T06:49:25.829Z,1.50
2018-03-16T06:51:52.994Z,1.25
2018-03-16T06:54:19.399Z,1.48
2018-03-16T06:56:46.541Z,1.20
2018-03-16T06:59:12.919Z,1.33
2018-03-16T07:01:39.354Z,1.87
2018-03-16T07:04:05.810Z,1.23
2018-03-16T07:06:32.211Z,1.90
2018-03-16T07:08:58.594Z,1.42
2018-03-16T07:11:25.409Z,1.25
2018-03-16T07:13:51.927Z,1.50
2018-03-16T07:16:18.340Z,1.40
2018-03-16T07:18:44.684Z,1.83
2018-03-16T07:21:11.046Z,1.20
2018-03-16T07:23:37.434Z,1.52
2018-03-16T07:26:03.808Z,1.62
2018-03-16T07:28:30.232Z,1.20
2018-03-16T07:30:56.650Z,2.33
2018-03-16T07:33:23.017Z,1.80
2018-03-16T07:35:49.461Z,1.20
2018-03-16T07:38:15.862Z,1.70
2018-03-16T07:40:42.272Z,1.75
2018-03-16T07:43:08.627Z,1.80
2018-03-16T07:45:41.217Z,1.67
2018-03-16T07:48:07.574Z,1.90
2018-03-16T07:50:33.973Z,1.52
2018-03-16T07:53:00.389Z,1.02
2018-03-16T07:55:26.814Z,1.40
2018-03-16T07:57:53.207Z,1.00
2018-03-16T08:00:19.595Z,1.05
2018-03-16T08:02:46.014Z,1.30
2018-03-16T08:05:12.414Z,1.25
2018-03-16T08:07:38.849Z,1.00
2018-03-16T08:10:05.211Z,1.20
2018-03-16T08:12:31.621Z,0.90
2018-03-16T08:14:58.012Z,0.62
2018-03-16T08:17:25.090Z,1.20
2018-03-16T08:19:51.494Z,1.98
2018-03-16T08:22:17.913Z,1.30
2018-03-16T08:24:45.037Z,1.30
2018-03-16T08:27:11.461Z,1.08
2018-03-16T08:29:37.831Z,1.12
2018-03-16T08:32:04.959Z,1.00
2018-03-16T08:34:31.329Z,1.33
2018-03-16T08:36:57.759Z,1.12
2018-03-16T08:39:24.213Z,1.40
2018-03-16T08:41:50.616Z,0.85
2018-03-16T08:44:16.990Z,1.30
2018-03-16T08:46:43.381Z,0.80
2018-03-16T08:49:09.806Z,1.20
2018-03-16T08:51:36.244Z,1.10
2018-03-16T08:54:02.655Z,1.42
2018-03-16T08:56:29.121Z,1.10
2018-03-16T08:58:55.534Z,1.20
2018-03-16T09:01:21.948Z,1.10
2018-03-16T09:03:49.857Z,1.00
2018-03-16T09:06:16.280Z,1.00
2018-03-16T09:08:42.722Z,0.80
2018-03-16T09:11:09.180Z,0.70
2018-03-16T09:13:35.578Z,1.02
2018-03-16T09:16:01.996Z,1.30
2018-03-16T09:18:28.431Z,1.30
2018-03-16T09:20:54.812Z,0.62
2018-03-16T09:23:22.088Z,0.80
2018-03-16T09:25:48.481Z,1.10
2018-03-16T09:28:14.868Z,0.80
2018-03-16T09:30:41.262Z,1.02
2018-03-16T09:33:07.674Z,0.88
2018-03-16T09:35:34.096Z,0.80
2018-03-16T09:38:00.494Z,0.80
2018-03-16T09:40:26.962Z,0.90
2018-03-16T09:42:53.344Z,2.05
2018-03-16T09:45:19.797Z,1.33
2018-03-16T09:47:46.166Z,1.00
2018-03-16T09:50:12.597Z,0.70
2018-03-16T09:52:39.025Z,1.30
2018-03-16T09:58:12.385Z,1.25
2018-03-16T10:00:38.897Z,1.45
2018-03-16T10:03:05.304Z,1.08
2018-03-16T10:05:31.706Z,1.05
2018-03-16T10:07:58.086Z,1.45
2018-03-16T10:10:24.526Z,1.12
2018-03-16T10:12:51.680Z,1.20
2018-03-16T10:15:19.710Z,0.88
2018-03-16T10:17:46.161Z,1.10
2018-03-16T10:20:12.516Z,1.10
2018-03-16T10:22:38.919Z,1.20
2018-03-16T10:25:06.405Z,1.00
2018-03-16T10:27:33.526Z,1.20
2018-03-16T10:29:59.888Z,1.17
2018-03-16T10:32:26.373Z,1.20
2018-03-16T10:34:52.753Z,2.60
2018-03-16T10:37:19.146Z,1.80
2018-03-16T10:39:45.522Z,1.23
2018-03-16T10:42:12.019Z,1.40
2018-03-16T10:44:39.147Z,1.40
2018-03-16T10:47:05.539Z,0.90
2018-03-16T10:49:32.022Z,1.20
2018-03-16T10:51:58.393Z,1.33
2018-03-16T10:54:26.319Z,0.90
2018-03-16T10:56:52.728Z,0.80
2018-03-16T10:59:19.269Z,0.85
2018-03-16T11:01:51.772Z,1.08
2018-03-16T11:04:18.214Z,1.17
2018-03-16T11:06:58.634Z,1.00
2018-03-16T11:09:25.078Z,1.02
2018-03-16T11:11:51.470Z,2.25
2018-03-16T11:14:17.886Z,0.88
2018-03-16T11:16:44.286Z,1.40
2018-03-16T11:19:10.737Z,0.80
2018-03-16T11:21:37.126Z,0.90
2018-03-16T11:24:03.589Z,1.20
2018-03-16T11:26:30.009Z,1.90
2018-03-16T11:28:56.478Z,1.10
2018-03-16T11:31:22.933Z,1.37
2018-03-16T11:33:49.473Z,0.75
2018-03-16T11:36:15.897Z,0.70
2018-03-16T11:38:42.408Z,1.05
2018-03-16T11:41:08.799Z,0.70
2018-03-16T11:43:35.201Z,0.90
2018-03-16T11:46:01.643Z,0.82
2018-03-16T11:48:28.063Z,0.60
2018-03-16T11:50:54.450Z,0.95
2018-03-16T11:53:20.842Z,1.02
2018-03-16T11:55:47.311Z,1.10
2018-03-16T11:58:13.700Z,0.70
2018-03-16T12:00:40.144Z,1.00
2018-03-16T12:03:06.505Z,0.80
2018-03-16T12:05:32.894Z,1.40
2018-03-16T12:07:59.283Z,0.70
2018-03-16T12:10:25.693Z,1.90
2018-03-16T12:12:52.120Z,0.70
2018-03-16T12:15:19.278Z,1.35
2018-03-16T12:17:45.682Z,0.75
2018-03-16T12:20:12.075Z,0.90
2018-03-16T12:22:39.240Z,0.73
2018-03-16T12:25:05.695Z,1.45
2018-03-16T12:27:32.818Z,0.80
2018-03-16T12:29:59.223Z,0.95
2018-03-16T12:32:25.656Z,0.70
2018-03-16T12:34:52.074Z,0.60
2018-03-16T12:37:18.456Z,1.08
2018-03-16T12:39:45.667Z,0.70
2018-03-16T12:42:12.016Z,1.05
2018-03-16T12:44:39.285Z,1.10
2018-03-16T12:47:05.708Z,0.85
2018-03-16T12:49:32.135Z,1.10
2018-03-16T12:51:58.506Z,0.70
2018-03-16T12:54:25.619Z,1.02
2018-03-16T12:56:52.278Z,0.90
2018-03-16T12:59:18.703Z,0.70
2018-03-16T13:01:45.826Z,1.37
2018-03-16T13:04:12.270Z,1.23
2018-03-16T13:06:38.713Z,1.02
2018-03-16T13:09:05.137Z,0.77
2018-03-16T13:11:31.537Z,0.80
2018-03-16T13:13:57.939Z,0.70
2018-03-16T13:16:24.475Z,1.37
2018-03-16T13:18:50.934Z,1.00
2018-03-16T13:21:17.358Z,1.00
2018-03-16T13:23:43.726Z,0.80
2018-03-16T13:26:10.098Z,0.73
2018-03-16T13:28:36.494Z,0.95
2018-03-16T13:31:02.897Z,0.95
2018-03-16T13:33:29.297Z,0.90
2018-03-16T13:35:55.691Z,1.10
2018-03-16T13:38:22.106Z,1.12
2018-03-16T13:40:48.461Z,1.00
2018-03-16T13:43:14.886Z,1.25
2018-03-16T13:45:42.022Z,0.95
2018-03-16T13:48:08.470Z,1.50
2018-03-16T13:50:35.642Z,1.02
2018-03-16T13:53:02.085Z,0.88
2018-03-16T13:55:28.521Z,1.00
2018-03-16T13:57:54.966Z,0.88
2018-03-16T14:00:21.380Z,1.20
2018-03-16T14:02:47.743Z,0.98
2018-03-16T14:05:14.153Z,1.02
2018-03-16T14:07:40.582Z,0.77
2018-03-16T14:10:07.083Z,0.80
2018-03-16T14:12:34.225Z,1.17
2018-03-16T14:15:00.700Z,1.10
2018-03-16T14:17:27.177Z,1.00
2018-03-16T14:19:53.576Z,1.00
2018-03-16T14:22:20.010Z,0.98
2018-03-16T14:24:46.464Z,0.70
2018-03-16T14:27:13.594Z,1.02
2018-03-16T14:29:40.054Z,1.02
2018-03-16T14:32:07.486Z,0.90
2018-03-16T14:34:35.067Z,0.90
2018-03-16T14:37:01.487Z,1.00
2018-03-16T14:39:27.935Z,1.08
2018-03-16T14:41:55.102Z,0.98
2018-03-16T14:44:21.494Z,0.90
2018-03-16T14:46:47.983Z,0.73
2018-03-16T14:49:14.439Z,1.20
2018-03-16T14:51:41.591Z,1.00
2018-03-16T14:54:08.101Z,0.90
2018-03-16T14:56:34.503Z,1.23
2018-03-16T14:59:01.703Z,1.85
2018-03-16T15:01:28.119Z,0.82
2018-03-16T15:03:54.551Z,0.90
2018-03-16T15:06:21.043Z,1.00
2018-03-16T15:08:47.494Z,1.12
2018-03-16T15:11:13.920Z,1.12
2018-03-16T15:13:40.393Z,1.10
2018-03-16T15:16:06.859Z,1.08
2018-03-16T15:18:34.023Z,1.30
2018-03-16T15:21:01.269Z,1.12
2018-03-16T15:23:28.440Z,0.90
2018-03-16T15:25:54.901Z,1.12
2018-03-16T15:28:21.407Z,0.88
2018-03-16T15:30:47.841Z,1.15
2018-03-16T15:33:14.287Z,1.20
2018-03-16T15:35:40.690Z,1.25
2018-03-16T15:38:07.182Z,1.30
2018-03-16T15:40:33.582Z,0.90
2018-03-16T15:43:00.007Z,1.17
2018-03-16T15:45:26.430Z,1.00
2018-03-16T15:47:52.885Z,0.57
2018-03-16T15:50:19.323Z,0.70
2018-03-16T15:52:45.755Z,1.05
2018-03-16T15:55:12.161Z,1.40
2018-03-16T15:57:38.660Z,0.98
2018-03-16T16:00:05.824Z,0.80
2018-03-16T16:02:32.429Z,0.90
2018-03-16T16:04:58.844Z,1.02
2018-03-16T16:07:25.276Z,1.20
2018-03-16T16:09:51.735Z,1.30
2018-03-16T16:12:18.958Z,1.00
2018-03-16T16:14:45.395Z,1.12
2018-03-16T16:17:11.799Z,0.95
2018-03-16T16:19:38.225Z,1.40
2018-03-16T16:22:04.631Z,1.00
2018-03-16T16:24:31.137Z,1.52
2018-03-16T16:26:57.545Z,0.68
2018-03-16T16:29:23.996Z,0.90
2018-03-16T16:31:50.431Z,1.12
2018-03-16T16:34:16.918Z,1.10
2018-03-16T16:36:44.109Z,1.10
2018-03-16T16:39:10.500Z,1.02
2018-03-16T16:41:36.889Z,1.10
2018-03-16T16:44:03.275Z,0.93
2018-03-16T16:46:29.675Z,0.93
2018-03-16T16:48:56.106Z,1.00
2018-03-16T16:51:22.544Z,1.00
2018-03-16T16:53:49.006Z,0.85
2018-03-16T16:56:15.462Z,0.98
2018-03-16T16:58:41.936Z,1.00
2018-03-16T17:01:08.379Z,1.00
2018-03-16T17:03:34.860Z,1.40
2018-03-16T17:06:02.348Z,1.75
2018-03-16T17:08:28.747Z,1.00
2018-03-16T17:10:55.177Z,1.30
2018-03-16T17:13:21.674Z,1.20
2018-03-16T17:15:48.157Z,1.20
2018-03-16T17:18:14.659Z,1.20
2018-03-16T17:20:41.114Z,1.08
2018-03-16T17:23:07.576Z,1.00
2018-03-16T17:25:34.715Z,1.30
2018-03-16T17:28:01.180Z,1.17
2018-03-16T17:30:27.645Z,1.10
2018-03-16T17:32:54.133Z,1.30
2018-03-16T17:35:20.564Z,1.25
2018-03-16T17:37:46.995Z,1.00
2018-03-16T17:40:13.402Z,1.75
2018-03-16T17:42:39.762Z,1.70
2018-03-16T17:45:06.235Z,1.90
2018-03-16T17:47:32.653Z,1.15
2018-03-16T17:49:59.116Z,1.30
2018-03-16T17:52:26.300Z,1.50
2018-03-16T17:54:52.750Z,1.60
2018-03-16T17:57:19.161Z,2.58
2018-03-16T17:59:45.585Z,1.95
2018-03-16T18:02:11.995Z,2.20
2018-03-16T18:04:38.493Z,2.08
2018-03-16T18:07:04.945Z,1.87
2018-03-16T18:09:32.102Z,1.55
2018-03-16T18:11:59.270Z,1.20
2018-03-16T18:14:26.488Z,2.00
2018-03-16T18:16:53.672Z,2.42
2018-03-16T18:19:20.808Z,2.10
2018-03-16T18:21:47.970Z,2.12
2018-03-16T18:24:14.421Z,3.20
2018-03-16T18:26:40.830Z,2.40
2018-03-16T18:29:07.256Z,2.90
2018-03-16T18:31:34.479Z,2.90
2018-03-16T18:34:00.927Z,2.00
2018-03-16T18:36:27.372Z,2.25
2018-03-16T18:38:54.591Z,2.03
2018-03-16T18:41:20.985Z,1.65
2018-03-16T18:43:47.379Z,2.10
2018-03-16T18:46:14.475Z,1.95
2018-03-16T18:48:40.866Z,1.75
2018-03-16T18:51:07.352Z,1.70
2018-03-16T18:53:34.161Z,1.80
2018-03-16T18:56:00.786Z,1.90
2018-03-16T18:58:27.224Z,1.80
2018-03-16T19:00:53.614Z,1.70
2018-03-16T19:03:20.086Z,2.28
2018-03-16T19:05:46.534Z,2.05
2018-03-16T19:08:12.975Z,2.67
2018-03-16T19:10:40.165Z,2.35
2018-03-16T19:13:06.966Z,1.95
2018-03-16T19:15:33.467Z,2.33
2018-03-16T19:17:59.907Z,2.22
2018-03-16T19:20:26.343Z,2.28
2018-03-16T19:22:53.663Z,2.60
2018-03-16T19:25:21.704Z,2.55
2018-03-16T19:27:48.152Z,2.30
2018-03-16T19:30:14.582Z,2.20
2018-03-16T19:32:41.032Z,2.15
2018-03-16T19:35:08.198Z,2.15
2018-03-16T19:37:34.629Z,2.20
2018-03-16T19:40:01.038Z,2.95
2018-03-16T19:42:28.161Z,2.80
2018-03-16T19:44:54.578Z,2.80
2018-03-16T19:47:20.970Z,2.83
2018-03-16T19:49:47.435Z,2.37
2018-03-16T19:52:13.911Z,3.08
2018-03-16T19:54:40.305Z,3.03
2018-03-16T19:57:06.745Z,2.70
2018-03-16T19:59:33.224Z,2.50
2018-03-16T20:01:59.603Z,3.03
2018-03-16T20:04:26.022Z,2.78
2018-03-16T20:06:52.497Z,2.90
2018-03-16T20:09:19.846Z,2.85
2018-03-16T20:11:46.287Z,2.67
2018-03-16T20:14:12.794Z,3.65
2018-03-16T20:16:39.205Z,2.25
2018-03-16T20:19:05.692Z,2.90
2018-03-16T20:21:32.183Z,2.40
2018-03-16T20:23:58.666Z,2.25
2018-03-16T20:26:25.891Z,2.53
2018-03-16T20:28:53.057Z,3.28
2018-03-16T20:31:20.192Z,2.12
2018-03-16T20:33:47.426Z,2.50
2018-03-16T20:36:13.896Z,2.12
2018-03-16T20:38:40.363Z,1.90
2018-03-16T20:41:06.737Z,3.15
2018-03-16T20:43:35.070Z,2.55
2018-03-16T20:46:01.523Z,2.45
2018-03-16T20:48:28.066Z,2.83
2018-03-16T20:50:54.748Z,2.60
2018-03-16T20:53:21.328Z,3.78
2018-03-16T20:55:47.843Z,3.25
2018-03-16T20:58:14.323Z,3.00
2018-03-16T21:00:40.836Z,2.65
2018-03-16T21:03:07.303Z,2.22
2018-03-16T21:05:33.786Z,2.95
2018-03-16T21:08:00.279Z,2.55
2018-03-16T21:10:26.737Z,3.53
2018-03-16T21:12:53.267Z,3.00
2018-03-16T21:15:19.752Z,2.42
2018-03-16T21:17:46.943Z,2.58
2018-03-16T21:20:14.207Z,2.85
2018-03-16T21:22:40.702Z,2.92
2018-03-16T21:25:07.444Z,2.90
2018-03-16T21:27:33.927Z,2.60
2018-03-16T21:30:00.372Z,3.65
2018-03-16T21:32:26.818Z,3.60
2018-03-16T21:34:54.010Z,3.83
2018-03-16T21:37:20.446Z,3.90
2018-03-16T21:39:46.857Z,3.05
2018-03-16T21:42:13.306Z,3.58
2018-03-16T21:44:39.892Z,2.80
2018-03-16T21:47:07.073Z,2.78
2018-03-16T21:49:33.557Z,2.50
2018-03-16T21:52:00.058Z,3.55
2018-03-16T21:54:26.623Z,2.78
2018-03-16T21:56:53.029Z,2.58
2018-03-16T21:59:19.589Z,3.42
2018-03-16T22:01:46.022Z,3.37
2018-03-16T22:04:12.487Z,3.33
2018-03-16T22:06:39.669Z,3.62
2018-03-16T22:09:06.066Z,3.22
2018-03-16T22:11:33.631Z,2.70
2018-03-16T22:14:00.239Z,3.08
2018-03-16T22:16:26.708Z,2.70
2018-03-16T22:18:53.093Z,3.10
2018-03-16T22:21:19.604Z,2.87
2018-03-16T22:23:46.064Z,3.35
2018-03-16T22:26:12.493Z,3.15
2018-03-16T22:28:38.903Z,3.05
2018-03-16T22:31:05.351Z,3.00
2018-03-16T22:33:31.731Z,3.08
2018-03-16T22:35:58.880Z,3.08
2018-03-16T22:38:25.307Z,2.87
2018-03-16T22:40:52.435Z,2.90
2018-03-16T22:43:18.875Z,2.83
2018-03-16T22:45:46.048Z,2.53
2018-03-16T22:48:12.470Z,3.58
2018-03-16T22:50:38.863Z,2.25
2018-03-16T22:53:05.259Z,3.35
2018-03-16T22:55:31.627Z,3.08
2018-03-16T23:00:31.350Z,3.92
2018-03-16T23:02:57.713Z,4.12
2018-03-16T23:05:24.166Z,3.03
2018-03-16T23:07:50.552Z,4.35
2018-03-16T23:10:16.965Z,3.37
2018-03-16T23:12:43.419Z,4.07
2018-03-16T23:15:09.859Z,3.30
2018-03-16T23:17:37.015Z,3.58
2018-03-16T23:20:03.505Z,4.05
2018-03-16T23:22:29.915Z,3.42
2018-03-16T23:24:56.318Z,3.75
2018-03-16T23:27:22.734Z,2.87
2018-03-16T23:29:49.721Z,2.90
2018-03-16T23:32:16.166Z,2.60
2018-03-16T23:34:42.549Z,2.80
2018-03-16T23:37:08.950Z,3.12
2018-03-16T23:39:45.387Z,3.45
2018-03-16T23:42:11.772Z,2.97
2018-03-16T23:44:38.941Z,2.35
2018-03-16T23:47:05.326Z,3.10
2018-03-16T23:49:31.776Z,2.67
2018-03-16T23:51:58.903Z,3.60
2018-03-16T23:54:25.279Z,2.60
2018-03-16T23:56:51.656Z,3.60
2018-03-16T23:59:18.075Z,3.47
